Date,TemperatureHighF,TemperatureAvgF,TemperatureLowF,DewpointHighF,DewpointAvgF,DewpointLowF,HumidityHigh,HumidityAvg,HumidityLow,PressureMaxIn,PressureMinIn,WindSpeedMaxMPH,WindSpeedAvgMPH,GustSpeedMaxMPH,PrecipitationSumIn
2013-1-1,54.2,47.3,40.8,39.5,36.3,30.7,87,66,43,30.31,30.24,18,6,19,0.00
2013-1-2,59.1,47.8,40.0,41.5,35.0,30.3,85,63,37,30.28,30.15,11,4,12,0.00
2013-1-3,63.2,46.1,35.4,43.7,38.3,32.4,90,75,47,30.30,30.20,8,3,10,0.00
2013-1-4,60.8,48.6,41.2,44.0,38.9,35.3,91,72,40,30.33,30.19,10,4,13,0.00
2013-1-5,52.4,42.0,39.6,46.9,38.4,36.2,95,87,81,30.27,30.11,3,0,4,0.19
2013-1-6,49.4,47.4,46.0,46.0,44.6,43.2,92,90,88,30.22,30.14,6,5,6,0.00
2013-1-7,55.3,47.0,41.3,47.2,44.1,40.2,96,90,74,30.28,30.19,5,3,5,0.01
2013-1-8,65.9,55.2,43.8,49.9,47.1,42.7,96,75,56,30.26,30.14,10,5,11,0.00
2013-1-9,53.7,47.6,43.5,50.9,43.5,38.1,94,86,68,30.18,30.02,18,6,23,0.00
2013-1-10,54.5,47.0,40.9,39.7,36.3,32.6,81,67,48,30.23,30.10,15,7,20,0.00
2013-1-11,60.1,46.5,39.7,42.7,37.4,32.5,89,71,51,30.29,30.15,11,4,11,0.00
2013-1-12,55.3,44.3,37.0,42.3,32.5,25.2,89,65,39,30.30,30.17,7,2,8,0.00
2013-1-13,55.9,43.4,31.0,35.7,28.4,18.5,80,57,30,30.33,30.20,9,3,16,0.00
2013-1-14,56.4,44.7,36.4,31.3,22.5,16.7,67,43,26,30.44,30.26,14,5,17,0.00
2013-1-15,56.5,43.7,34.3,36.9,30.0,26.5,79,61,33,30.51,30.43,10,4,12,0.00
2013-1-16,61.9,47.3,36.4,41.1,35.4,31.3,91,67,34,30.48,30.29,10,6,15,0.00
2013-1-17,66.1,51.3,40.3,44.8,36.2,28.4,82,61,25,30.30,30.16,11,5,14,0.00
2013-1-18,67.4,54.6,44.8,40.7,35.3,30.6,82,52,26,30.26,30.15,13,6,15,0.00
2013-1-19,66.1,52.9,41.2,42.2,36.8,29.4,90,59,31,30.28,30.17,12,6,18,0.00
2013-1-20,67.1,52.5,40.9,43.3,37.3,29.6,89,61,27,30.26,30.15,9,4,13,0.00
2013-1-21,69.5,52.1,41.4,48.4,39.1,32.5,90,64,35,30.21,30.10,10,4,11,0.00
2013-1-22,70.2,53.2,44.3,47.9,43.3,37.6,81,70,37,30.14,30.01,7,2,9,0.00
2013-1-23,55.0,51.5,49.8,50.6,48.1,45.1,96,88,78,30.13,29.99,9,2,10,0.09
2013-1-24,64.0,54.1,50.2,54.0,50.6,48.5,95,88,70,30.23,30.09,8,3,11,0.00
2013-1-25,70.0,57.9,51.2,57.4,52.9,49.8,97,84,61,30.23,30.05,10,3,12,0.00
2013-1-26,58.7,52.8,49.0,51.4,45.4,39.5,97,77,50,30.12,30.00,19,8,24,0.00
2013-1-27,59.9,49.6,40.7,43.3,40.0,36.9,88,70,45,30.20,30.10,11,5,14,0.00
2013-1-28,61.4,50.7,43.6,45.1,41.6,37.7,82,72,48,30.32,30.20,13,6,20,0.00
2013-1-29,62.2,51.0,43.6,48.3,43.3,39.2,87,75,50,30.39,30.28,8,2,10,0.00
2013-1-30,60.9,51.7,44.3,51.7,46.4,41.3,94,83,60,30.37,30.27,7,2,9,0.00
2013-1-31,71.3,54.1,44.1,50.9,46.4,42.8,96,77,46,30.32,30.18,10,6,13,0.00
2013-2-1,67.1,48.1,46.3,48.1,44.8,43.1,95,89,50,30.23,30.14,8,5,9,0.00
2013-2-2,55.8,50.3,47.3,50.4,47.6,45.8,96,90,82,30.32,30.24,5,3,6,0.00
2013-2-3,55.8,51.4,48.2,49.4,46.5,43.2,91,83,78,30.28,30.17,5,2,6,0.00
2013-2-4,52.4,49.8,48.5,48.9,47.9,47.1,95,93,88,30.21,30.11,6,3,7,0.00
2013-2-5,54.0,50.6,47.7,48.0,46.2,43.7,89,85,80,30.18,30.11,11,5,12,0.00
2013-2-6,58.9,51.9,43.3,50.2,44.5,40.6,91,76,58,30.23,30.14,8,3,12,0.00
2013-2-7,54.1,49.5,46.5,48.6,44.0,40.4,93,82,63,30.20,30.03,18,7,19,0.11
2013-2-8,57.7,48.6,42.1,44.9,41.4,37.0,94,77,54,30.06,29.96,10,4,11,0.00
2013-2-9,62.5,49.9,39.9,41.6,36.5,27.2,82,62,27,30.13,30.02,7,2,9,0.00
2013-2-10,58.9,48.7,37.3,46.9,40.0,32.7,87,72,51,30.17,30.05,5,2,7,0.00
2013-2-11,68.7,52.5,41.2,48.9,40.3,28.6,93,69,25,30.27,30.11,11,5,13,0.00
2013-2-12,62.3,51.7,44.0,49.0,45.1,40.2,94,80,45,30.40,30.27,10,4,11,0.00
2013-2-13,55.1,48.5,41.4,49.9,46.0,39.6,95,91,80,30.38,30.23,8,2,11,0.00
2013-2-14,69.2,53.4,42.8,55.3,47.6,41.7,98,83,48,30.28,30.16,7,2,8,0.01
2013-2-15,76.1,60.8,48.7,49.5,43.9,37.2,94,57,32,30.29,30.22,11,4,15,0.00
2013-2-16,76.3,57.0,49.1,51.6,48.7,45.6,93,77,40,30.26,30.07,12,6,14,0.00
2013-2-17,58.6,52.5,49.1,50.4,48.4,46.4,94,86,70,30.09,29.99,10,5,12,0.00
2013-2-18,52.1,49.4,46.5,47.0,43.1,39.0,91,79,68,30.07,30.00,14,8,19,0.00
2013-2-19,49.9,46.7,42.3,45.8,39.9,35.2,90,78,61,30.01,29.77,17,8,21,0.25
2013-2-20,58.9,48.0,37.9,43.5,38.9,33.7,87,72,46,30.09,29.89,14,5,15,0.00
2013-2-21,64.1,50.9,40.2,43.3,38.6,31.7,85,65,32,30.21,30.09,12,4,14,0.00
2013-2-22,57.3,50.0,40.4,48.7,44.1,37.4,91,80,62,30.30,30.20,15,3,17,0.00
2013-2-23,61.8,52.7,48.1,48.7,40.7,33.7,92,65,36,30.30,30.18,17,9,21,0.00
2013-2-24,67.6,52.6,44.7,47.2,38.2,25.8,89,62,22,30.29,30.19,12,7,15,0.00
2013-2-25,59.1,51.6,45.7,50.8,46.5,42.0,92,83,62,30.32,30.19,9,4,10,0.00
2013-2-26,70.5,52.4,42.4,49.0,41.9,23.2,90,72,18,30.26,30.16,10,4,13,0.00
2013-2-27,60.6,51.7,40.6,49.7,46.1,37.1,92,82,59,30.40,30.24,7,3,9,0.00
2013-2-28,58.6,53.2,50.3,53.5,50.7,48.4,95,91,81,30.49,30.40,11,5,13,0.00
2013-3-1,76.4,58.0,47.2,56.5,51.2,46.1,98,81,43,30.47,30.25,10,3,11,0.01
2013-3-2,68.2,55.9,51.4,55.6,51.3,47.7,95,85,63,30.27,30.09,11,4,18,0.00
2013-3-3,58.6,52.7,49.6,53.3,49.7,46.6,96,89,81,30.14,30.06,15,6,18,0.00
2013-3-4,53.9,49.6,46.3,47.7,45.8,42.0,93,87,74,30.19,30.08,15,4,15,0.00
2013-3-5,55.7,50.8,45.4,49.0,44.8,41.4,90,80,71,30.11,29.86,34,14,35,0.05
2013-3-6,54.1,51.7,47.0,50.1,45.8,43.3,94,80,70,30.10,29.87,30,10,32,0.03
2013-3-7,58.4,49.6,42.8,47.9,43.4,38.5,94,80,54,30.04,29.88,8,2,11,0.00
2013-3-8,60.4,51.9,45.6,46.2,43.6,41.3,88,74,52,30.07,29.88,17,6,21,0.00
2013-3-9,60.4,52.1,41.4,52.6,46.1,38.7,92,81,55,30.34,30.07,14,3,14,0.00
2013-3-10,61.1,53.2,45.5,52.8,48.8,43.6,95,86,68,30.40,30.27,9,3,10,0.01
2013-3-11,69.4,53.9,42.8,52.1,48.5,40.9,95,83,49,30.30,30.13,11,4,14,0.00
2013-3-12,59.7,52.8,48.5,54.1,50.6,47.7,98,92,81,30.20,30.09,8,4,9,0.00
2013-3-13,80.0,57.5,46.8,58.0,52.2,46.3,98,85,43,30.19,30.07,9,3,13,0.01
2013-3-14,57.0,52.8,49.2,53.4,50.7,48.1,98,93,85,30.21,30.13,11,5,14,0.01
2013-3-15,62.3,54.1,50.5,53.4,50.7,48.6,95,88,64,30.17,30.07,10,4,14,0.00
2013-3-16,68.7,55.0,49.6,54.5,49.3,44.9,97,83,45,30.16,30.05,15,7,15,0.00
2013-3-17,65.3,55.7,48.1,51.4,46.8,41.7,89,73,44,30.18,30.07,13,4,16,0.00
2013-3-18,59.0,53.4,49.3,50.5,48.2,46.1,91,83,71,30.17,30.06,11,4,12,0.00
2013-3-19,60.2,53.8,49.6,52.5,48.7,44.7,90,83,69,30.17,30.10,13,4,15,0.07
2013-3-20,57.4,54.0,49.8,54.8,51.3,46.0,96,91,77,30.17,30.11,13,6,16,0.04
2013-3-21,65.7,54.1,44.4,51.6,45.1,41.1,90,73,45,30.17,30.04,11,5,15,0.00
2013-3-22,70.8,57.1,46.4,44.9,38.4,25.6,81,55,20,30.16,30.05,12,5,13,0.00
2013-3-23,71.4,55.3,44.8,49.0,41.7,29.0,86,64,21,30.19,30.07,10,5,12,0.00
2013-3-24,59.5,53.1,48.5,51.6,48.4,45.2,91,84,69,30.14,30.01,16,5,18,0.00
2013-3-25,56.5,51.2,48.3,48.9,46.4,44.2,92,84,72,30.07,29.96,13,8,16,0.00
2013-3-26,57.5,53.0,47.5,51.4,47.4,43.2,88,81,69,30.04,29.96,10,3,12,0.00
2013-3-27,58.1,54.2,51.3,54.2,51.3,47.6,97,90,82,30.06,29.99,12,5,17,0.00
2013-3-28,63.2,57.1,53.7,55.5,53.6,51.7,97,88,76,30.12,30.05,10,3,11,0.00
2013-3-29,72.6,57.5,51.7,57.7,53.1,50.6,97,87,54,30.13,30.05,13,5,15,0.00
2013-3-30,62.6,56.2,52.2,55.3,52.8,51.0,97,89,69,30.12,30.01,14,6,16,0.05
2013-3-31,64.6,57.8,55.4,56.5,54.4,52.8,95,88,73,30.10,30.02,12,5,17,0.09
2013-4-1,61.7,56.9,53.0,56.2,53.4,48.9,98,88,72,30.19,30.08,10,4,11,0.42
2013-4-2,60.1,54.5,49.8,55.2,51.6,47.8,95,90,83,30.23,30.12,10,4,13,0.00
2013-4-3,71.0,55.3,50.7,58.1,51.9,49.3,97,89,56,30.18,30.03,12,6,15,0.00
2013-4-4,62.1,55.7,50.7,57.2,54.1,49.2,97,94,85,30.16,30.03,18,9,19,0.27
2013-4-5,61.1,56.9,54.9,55.9,54.0,52.1,97,90,75,30.22,30.14,12,6,17,0.00
2013-4-6,59.9,56.1,53.5,56.8,53.7,50.9,96,92,86,30.23,30.16,11,6,15,0.00
2013-4-7,60.8,56.1,52.5,56.6,51.8,48.3,95,86,73,30.22,29.88,21,8,25,0.02
2013-4-8,71.4,56.8,48.8,49.1,41.6,25.7,83,59,18,30.06,29.85,25,14,30,0.00
2013-4-9,78.7,64.5,52.4,50.5,43.2,31.4,73,50,18,30.14,30.04,19,9,21,0.00
2013-4-10,79.7,65.1,57.7,57.6,51.2,46.9,83,62,37,30.20,30.07,14,6,16,0.00
2013-4-11,64.1,57.3,52.1,55.0,51.0,47.3,87,80,66,30.10,29.87,17,6,18,0.00
2013-4-12,60.7,54.8,51.5,53.6,50.5,48.3,91,86,75,29.97,29.87,17,8,17,0.00
2013-4-13,68.0,57.2,51.4,53.1,47.6,41.9,90,72,47,29.95,29.84,17,10,19,0.00
2013-4-14,66.3,55.9,47.3,50.0,43.2,34.3,90,64,38,29.98,29.88,24,8,30,0.00
2013-4-15,58.9,51.8,47.3,48.2,41.6,36.1,92,69,48,30.00,29.89,27,13,34,0.00
2013-4-16,68.3,56.3,46.0,45.0,37.4,30.9,70,51,27,30.19,30.01,18,8,21,0.00
2013-4-17,74.1,62.2,54.1,50.7,35.5,19.6,83,40,13,30.30,30.19,16,9,20,0.00
2013-4-18,67.4,58.3,51.1,52.8,47.5,40.9,86,69,40,30.30,30.21,12,4,15,0.00
2013-4-19,65.2,60.8,53.3,55.0,52.6,49.3,90,75,59,30.27,30.09,10,5,14,0.00
2013-4-20,78.4,60.4,52.3,55.1,50.7,43.0,89,73,30,30.15,30.01,12,5,15,0.00
2013-4-21,68.8,58.8,50.5,57.0,52.3,47.3,89,80,62,30.08,29.95,8,4,9,0.00
2013-4-22,77.0,62.3,53.7,56.5,52.7,47.7,92,73,38,30.00,29.88,12,4,13,0.00
2013-4-23,83.1,59.9,49.5,53.4,45.2,24.2,93,67,12,29.96,29.90,13,6,16,0.00
2013-4-24,57.7,53.3,49.2,51.0,49.2,47.2,94,86,75,29.99,29.89,14,7,19,0.00
2013-4-25,59.4,55.7,52.7,52.1,50.5,48.3,88,83,75,30.18,29.99,13,7,16,0.00
2013-4-26,59.6,54.2,51.0,53.6,50.0,47.3,93,86,79,30.28,30.17,13,5,16,0.00
2013-4-27,57.8,52.3,49.4,53.9,49.8,47.2,97,91,83,30.28,30.12,21,8,23,0.00
2013-4-28,63.7,56.3,50.6,56.4,52.4,48.6,95,87,76,30.13,29.91,11,7,14,0.00
2013-4-29,68.6,61.0,55.6,58.2,54.8,51.7,91,81,60,29.94,29.80,12,5,13,0.00
2013-4-30,59.8,55.9,54.8,53.3,51.6,50.7,88,85,79,29.89,29.83,7,3,7,0.00
2013-5-1,65.7,60.8,58.4,55.1,52.8,50.9,81,75,67,30.12,30.04,8,5,10,0.00
2013-5-2,86.8,65.9,53.2,56.1,48.8,29.3,87,61,13,30.19,30.10,11,4,14,0.00
2013-5-3,74.8,63.3,56.4,58.1,53.3,39.3,89,71,28,30.11,29.83,12,5,14,0.00
2013-5-4,69.5,59.4,55.1,57.5,53.7,51.8,92,82,56,29.83,29.62,16,7,21,0.00
2013-5-5,66.3,60.2,55.8,54.4,52.0,50.3,86,75,62,29.85,29.65,13,5,16,0.00
2013-5-6,65.9,61.3,56.9,54.4,53.1,50.9,85,75,59,30.01,29.85,12,5,17,0.00
2013-5-7,65.1,59.8,55.3,57.4,54.9,53.6,95,84,70,30.09,30.00,12,6,16,0.00
2013-5-8,55.3,54.5,53.9,53.4,52.7,51.9,94,94,93,30.09,30.08,7,4,7,0.00
2013-5-9,62.2,58.1,54.0,55.3,52.7,50.2,87,82,77,30.22,30.11,9,5,12,0.00
2013-5-10,60.4,54.8,52.2,57.1,52.4,49.9,96,92,86,30.23,30.14,20,10,21,0.00
2013-5-11,62.7,55.7,51.5,57.3,53.5,50.4,97,92,81,30.20,30.08,18,7,19,0.00
2013-5-12,63.8,57.8,52.9,59.0,55.4,52.1,97,92,83,30.19,30.06,15,8,17,0.00
2013-5-13,61.5,57.1,52.7,57.5,54.3,51.4,97,91,79,30.14,29.99,17,11,20,0.00
2013-5-14,61.4,57.7,54.6,54.9,53.0,50.5,92,85,78,30.04,29.95,23,14,24,0.00
2013-5-15,67.3,58.0,53.4,55.5,51.3,49.6,89,79,53,30.09,30.02,18,10,22,0.00
2013-5-16,64.4,59.3,55.3,58.3,53.8,48.5,95,82,66,30.07,29.99,16,8,19,0.00
2013-5-17,65.0,58.7,54.3,54.8,49.9,46.0,81,73,57,30.11,30.01,14,7,18,0.00
2013-5-18,70.1,60.4,53.7,58.1,52.6,48.2,90,76,59,30.17,30.09,18,8,21,0.00
2013-5-19,72.6,62.0,55.2,58.6,54.4,48.9,88,77,55,30.15,30.00,13,5,15,0.00
2013-5-20,73.0,61.3,53.7,60.1,55.5,50.8,93,82,59,30.04,29.95,21,6,24,0.00
2013-5-21,68.4,59.1,53.1,54.7,49.2,41.7,92,71,49,30.02,29.94,27,12,32,0.00
2013-5-22,66.1,57.4,49.7,45.0,37.4,23.7,70,49,20,30.06,29.93,19,13,25,0.00
2013-5-23,67.6,60.1,54.5,51.0,46.0,42.7,77,60,43,30.04,29.99,14,7,18,0.00
2013-5-24,67.6,57.5,52.4,52.7,48.5,42.6,87,73,44,30.04,29.96,15,7,19,0.00
2013-5-25,65.6,56.1,51.8,53.3,50.0,48.1,89,80,55,30.07,29.99,21,12,29,0.00
2013-5-26,63.2,58.7,54.6,55.9,53.4,50.3,92,83,73,30.16,30.07,17,8,22,0.00
2013-5-27,63.5,58.0,55.4,56.6,54.0,49.2,96,86,73,30.15,30.03,15,7,17,0.01
2013-5-28,68.5,59.7,55.1,60.5,56.1,51.2,98,89,62,30.04,29.95,12,6,18,0.01
2013-5-29,69.4,62.4,56.7,58.1,53.5,48.5,91,74,55,30.00,29.92,17,8,24,0.00
2013-5-30,66.6,59.5,53.5,56.0,53.0,50.3,90,79,67,30.03,29.97,12,5,14,0.00
2013-5-31,67.4,59.7,55.4,58.1,53.7,51.2,88,81,69,30.06,29.94,16,6,17,0.00
2013-6-1,67.4,59.7,55.2,56.8,53.8,51.0,89,81,63,29.98,29.80,18,7,19,0.00
2013-6-2,60.3,56.4,53.0,54.8,52.7,51.1,94,88,81,29.82,29.73,18,10,24,0.00
2013-6-3,61.0,56.8,53.2,54.2,52.6,51.4,95,86,77,29.91,29.77,18,11,22,0.00
2013-6-4,60.5,56.8,54.8,54.6,52.7,51.8,91,86,80,30.01,29.90,16,9,18,0.00
2013-6-5,59.4,55.6,53.3,54.7,52.1,50.4,93,88,83,30.05,29.97,12,8,15,0.00
2013-6-6,60.2,55.2,52.1,55.6,52.7,50.4,96,91,84,30.01,29.90,17,9,20,0.00
2013-6-7,63.8,57.2,53.0,58.7,54.8,51.9,96,92,83,29.94,29.76,15,8,17,0.00
2013-6-8,66.3,59.4,55.1,58.4,55.9,53.4,96,88,75,29.85,29.76,17,9,24,0.00
2013-6-9,61.5,58.8,57.2,56.8,55.7,54.8,94,90,82,29.93,29.85,18,12,25,0.00
2013-6-10,62.8,59.1,56.1,55.7,54.8,52.9,95,86,75,29.99,29.86,16,8,21,0.00
2013-6-11,65.7,59.8,56.5,58.6,55.1,52.8,89,85,76,30.03,29.92,15,6,16,0.00
2013-6-12,69.5,60.6,55.3,58.6,53.8,49.5,89,79,50,30.03,29.95,16,6,18,0.00
2013-6-13,66.8,59.9,55.2,58.3,53.9,51.1,89,81,69,30.13,30.03,14,6,15,0.00
2013-6-14,70.1,59.9,53.7,59.4,54.9,51.4,93,84,63,30.03,29.87,18,8,20,0.00
2013-6-15,59.5,54.6,51.8,55.2,52.1,50.2,95,91,84,30.05,29.88,18,11,22,0.00
2013-6-16,69.2,58.7,53.3,59.1,54.5,51.1,95,86,60,30.13,30.04,17,9,18,0.00
2013-6-17,72.9,62.1,53.2,61.0,55.8,51.8,96,81,59,30.13,30.04,14,8,18,0.00
2013-6-18,69.5,61.9,57.1,55.9,52.0,46.3,92,71,46,30.07,30.00,19,10,25,0.00
2013-6-19,73.1,62.4,55.5,58.0,51.1,48.0,81,67,43,30.09,30.02,18,8,25,0.00
2013-6-20,74.1,62.1,56.3,58.1,52.2,45.7,86,71,37,30.04,29.97,19,7,22,0.00
2013-6-21,63.6,59.0,56.1,56.6,54.3,51.7,91,84,70,30.02,29.95,18,9,20,0.00
2013-6-22,66.2,59.9,56.2,59.5,55.4,52.8,94,85,73,29.97,29.86,18,7,20,0.00
2013-6-23,60.9,58.6,56.0,59.8,57.3,54.8,98,95,92,29.92,29.86,18,7,21,0.00
2013-6-24,59.9,57.7,55.6,58.8,56.6,54.8,98,96,90,29.94,29.83,11,5,13,0.08
2013-6-25,66.1,62.6,59.8,63.7,61.4,58.3,98,96,92,30.02,29.92,13,5,14,0.26
2013-6-26,72.5,64.0,60.4,65.5,61.9,59.9,99,93,77,30.08,30.01,7,1,8,0.00
2013-6-27,68.7,63.0,58.0,63.8,60.3,57.1,99,91,80,30.12,30.03,0,0,0,0.00
2013-6-28,69.3,63.5,58.9,62.6,59.9,57.4,95,88,77,30.06,29.92,0,0,0,0.00
2013-6-29,70.6,64.8,59.8,63.2,59.7,57.2,91,84,72,29.95,29.82,0,0,0,0.00
2013-6-30,64.1,61.5,59.4,60.1,58.3,57.1,92,89,84,29.88,29.80,0,0,0,0.00
2013-7-1,68.7,61.1,57.2,62.4,58.2,56.1,97,90,77,29.88,29.83,18,4,24,0.00
2013-7-2,65.6,59.8,57.2,60.4,57.9,56.1,98,93,82,29.97,29.86,19,12,24,0.00
2013-7-3,67.0,61.5,58.1,63.0,59.3,57.0,97,93,84,29.96,29.80,15,4,16,0.00
2013-7-4,67.7,63.3,59.8,61.7,59.3,54.3,97,87,74,29.83,29.71,17,10,20,0.00
2013-7-5,61.2,58.6,56.2,56.4,55.0,53.7,94,88,81,29.82,29.75,22,14,26,0.00
2013-7-6,59.6,56.7,55.1,55.2,53.8,53.0,93,90,84,29.85,29.78,20,12,23,0.00
2013-7-7,61.7,58.3,55.6,56.8,54.8,53.0,93,88,83,29.91,29.83,13,9,16,0.00
2013-7-8,62.3,58.2,55.5,58.4,55.1,53.2,95,89,83,30.02,29.91,14,8,18,0.00
2013-7-9,65.7,59.2,54.3,60.3,56.7,53.5,98,92,81,30.08,29.96,12,6,12,0.00
2013-7-10,63.1,57.3,54.4,58.2,55.1,53.3,97,92,83,30.03,29.94,15,8,19,0.00
2013-7-11,60.1,55.8,52.8,56.2,53.6,51.3,96,92,86,30.00,29.92,14,9,19,0.00
2013-7-12,62.3,57.3,55.2,57.1,54.4,52.7,95,90,83,29.99,29.91,16,11,21,0.00
2013-7-13,63.0,57.7,55.1,57.7,54.9,53.1,93,90,81,30.00,29.93,17,11,19,0.00
2013-7-14,61.7,57.0,54.5,57.3,54.5,52.8,95,91,84,30.05,29.93,12,8,16,0.00
2013-7-15,61.2,56.2,52.2,56.7,53.7,51.1,96,91,82,29.98,29.88,13,9,15,0.00
2013-7-16,61.9,58.5,55.3,58.2,55.4,52.6,95,89,84,30.06,29.91,15,9,18,0.00
2013-7-17,65.3,60.3,55.9,59.5,56.6,54.5,96,88,81,30.13,30.06,14,6,16,0.00
2013-7-18,64.0,57.6,54.9,59.1,55.6,53.8,97,93,83,30.11,29.98,17,10,20,0.00
2013-7-19,61.3,57.1,54.7,58.7,55.2,53.6,96,93,88,30.00,29.86,20,12,24,0.00
2013-7-20,59.2,55.5,53.6,56.6,54.0,52.8,97,95,90,29.90,29.79,17,12,22,0.00
2013-7-21,59.3,56.1,53.7,55.9,54.2,52.8,97,94,88,29.93,29.82,15,11,22,0.00
2013-7-22,62.5,59.2,55.2,59.6,57.3,53.9,97,94,88,30.00,29.93,12,7,15,0.00
2013-7-23,65.8,60.7,57.7,61.0,58.5,56.4,98,92,83,30.04,29.98,12,7,15,0.00
2013-7-24,67.0,60.0,56.2,61.0,57.9,55.6,99,93,81,30.03,29.94,16,8,19,0.00
2013-7-25,61.9,56.9,54.4,58.5,55.5,53.6,98,95,88,30.07,29.97,16,11,19,0.00
2013-7-26,62.0,57.5,54.1,58.8,55.9,53.3,98,94,88,30.15,30.04,13,9,18,0.00
2013-7-27,61.7,57.5,54.8,58.2,55.7,53.9,98,94,87,30.07,29.90,14,9,16,0.00
2013-7-28,59.9,56.4,54.8,56.0,54.6,53.3,98,94,86,29.92,29.86,19,13,23,0.00
2013-7-29,61.8,58.1,55.5,56.6,54.9,53.5,94,89,83,30.06,29.88,20,14,26,0.00
2013-7-30,62.0,57.9,54.5,57.2,54.9,53.1,95,90,83,30.15,30.05,14,8,18,0.00
2013-7-31,56.2,55.3,54.1,54.7,53.8,52.8,96,95,94,30.12,30.10,15,10,18,0.00
2013-8-1,64.1,60.3,58.9,59.0,57.1,55.0,93,89,83,30.10,30.00,22,15,26,0.00
2013-8-2,62.8,57.8,54.7,58.2,55.4,53.3,95,92,85,30.03,29.94,19,12,23,0.00
2013-8-3,60.6,56.7,54.0,57.0,54.6,52.6,97,93,86,30.02,29.95,16,10,22,0.00
2013-8-4,60.4,56.5,54.0,56.2,54.2,52.9,97,92,85,30.06,29.99,16,9,20,0.00
2013-8-5,61.0,56.8,54.6,56.5,54.4,52.6,95,92,84,30.08,29.98,18,7,22,0.00
2013-8-6,62.4,58.1,54.7,57.4,55.1,52.6,95,90,81,30.08,30.02,16,8,20,0.00
2013-8-7,62.5,60.0,57.3,58.4,57.0,55.2,95,90,84,30.14,30.07,13,8,16,0.00
2013-8-8,66.5,61.4,57.3,60.3,57.4,54.7,95,87,73,30.07,29.96,11,5,14,0.00
2013-8-9,64.8,59.4,55.7,59.2,56.1,53.7,94,89,80,30.03,29.96,11,8,15,0.00
2013-8-10,65.8,61.0,58.0,60.6,57.7,55.5,95,89,82,30.08,30.02,11,6,14,0.00
2013-8-11,63.7,58.3,55.9,59.8,56.7,54.7,98,94,86,30.07,29.97,18,10,20,0.00
2013-8-12,63.5,58.6,55.8,59.2,56.7,54.9,98,94,85,30.05,29.97,18,10,20,0.00
2013-8-13,68.6,61.5,57.1,61.9,57.8,55.4,95,88,76,30.03,29.93,18,8,20,0.00
2013-8-14,67.3,61.1,56.7,63.3,58.3,55.0,96,91,84,30.02,29.92,15,11,18,0.00
2013-8-15,68.1,63.8,60.2,65.1,62.1,59.6,98,94,89,30.00,29.93,15,9,16,0.00
2013-8-16,65.9,61.7,59.0,63.4,60.4,57.9,99,96,88,30.02,29.96,14,9,17,0.00
2013-8-17,69.2,62.1,59.1,63.8,59.4,57.3,95,91,81,30.03,29.89,18,10,19,0.00
2013-8-18,67.6,62.2,58.1,63.0,59.8,57.1,97,92,83,29.93,29.80,11,7,14,0.00
2013-8-19,69.1,63.7,59.7,62.2,60.2,58.4,96,88,77,29.93,29.82,13,6,16,0.00
2013-8-20,65.8,61.2,58.5,60.6,58.6,56.8,98,91,84,29.94,29.86,13,8,16,0.00
2013-8-21,65.5,61.3,58.9,59.9,57.4,56.1,93,87,80,29.99,29.89,11,7,17,0.00
2013-8-22,67.3,61.7,58.1,59.4,56.8,54.9,90,84,74,30.01,29.91,12,7,16,0.00
2013-8-23,61.2,59.2,57.2,59.0,56.7,54.6,95,91,87,29.97,29.84,20,11,23,0.00
2013-8-24,69.1,61.8,57.5,63.1,59.1,56.1,96,91,79,29.93,29.87,18,10,19,0.00
2013-8-25,69.5,64.2,60.9,64.9,61.8,59.5,97,92,83,29.98,29.91,14,7,16,0.00
2013-8-26,69.3,63.4,60.7,62.3,59.8,57.4,96,88,72,30.04,29.92,11,6,14,0.00
2013-8-27,71.0,62.5,57.6,63.4,59.7,56.6,97,91,71,29.94,29.85,12,7,15,0.00
2013-8-28,70.8,63.3,58.6,65.7,61.8,58.1,99,95,84,29.97,29.89,13,8,14,0.00
2013-8-29,67.9,63.3,61.6,64.4,61.8,60.4,97,95,89,30.09,29.97,8,4,10,0.00
2013-9-2,73.4,68.9,63.5,66.1,63.9,59.0,93,84,75,29.98,29.89,10,6,13,0.00
2013-9-3,71.3,65.0,60.3,63.9,61.2,59.3,97,88,72,30.03,29.95,13,7,17,0.00
2013-9-4,78.3,66.7,61.1,64.8,60.9,58.6,95,83,51,30.06,29.94,12,7,17,0.00
2013-9-5,78.9,67.1,61.1,64.4,59.4,54.8,93,78,44,30.04,29.95,16,7,22,0.00
2013-9-6,83.8,69.7,61.2,65.0,61.3,57.7,91,76,45,30.01,29.84,9,3,10,0.00
2013-9-7,82.1,68.5,57.8,64.1,60.0,53.9,97,76,45,29.90,29.82,16,4,17,0.00
2013-9-8,67.2,61.1,57.0,62.3,58.9,55.9,98,93,83,29.91,29.78,11,7,15,0.00
2013-9-9,67.6,60.6,55.7,61.9,58.6,55.1,98,93,80,29.85,29.73,16,8,18,0.01
2013-9-10,65.2,62.0,58.8,61.2,59.8,58.2,98,93,86,29.93,29.77,18,11,22,0.00
2013-9-11,67.1,64.4,62.9,61.2,60.0,59.3,92,86,79,30.03,29.92,13,8,17,0.00
2013-9-12,68.8,64.1,59.5,63.7,61.0,58.1,97,90,78,30.02,29.90,0,0,0,0.00
2013-9-13,64.7,60.0,56.8,60.3,58.1,55.4,97,93,85,29.94,29.78,0,0,0,0.00
2013-9-14,66.5,60.4,57.1,62.2,58.1,55.7,96,92,83,29.86,29.75,0,0,0,0.00
2013-9-15,70.3,63.6,58.1,62.9,59.5,55.5,93,86,75,29.89,29.80,0,0,0,0.00
2013-9-16,69.0,62.8,59.2,63.4,59.9,57.9,97,91,80,29.93,29.80,0,0,0,0.00
2013-9-17,71.9,64.1,60.5,59.2,56.9,54.4,91,78,60,29.91,29.84,0,0,0,0.00
2013-9-18,74.4,64.4,57.1,60.7,56.6,51.5,87,77,47,29.94,29.83,12,2,12,0.01
2013-9-19,71.1,63.1,58.0,60.8,57.7,54.8,91,83,67,29.89,29.77,9,5,12,0.00
2013-9-20,66.3,61.7,56.3,62.8,59.0,53.8,96,91,88,29.89,29.81,14,8,17,0.00
2013-9-21,66.2,63.0,60.0,62.5,59.5,55.3,97,88,72,29.92,29.83,18,9,19,0.48
2013-9-22,72.0,62.8,54.5,60.5,56.4,52.3,95,80,59,30.03,29.92,15,6,16,0.00
2013-9-23,73.8,64.7,57.2,64.6,58.3,53.0,92,80,63,30.05,29.95,15,3,15,0.00
2013-9-24,73.7,64.9,59.8,60.4,56.4,51.3,92,75,51,30.02,29.92,19,9,24,0.00
2013-9-25,71.5,63.1,57.5,52.1,49.5,46.4,78,62,43,29.97,29.83,21,10,25,0.00
2013-9-26,75.8,63.0,55.6,56.9,47.6,39.1,72,59,28,30.01,29.87,14,7,19,0.00
2013-9-27,77.4,65.5,56.5,56.5,47.4,38.0,85,54,28,30.12,30.01,9,4,10,0.00
2013-9-28,71.4,63.2,54.0,59.6,54.2,46.4,89,74,47,30.11,30.02,10,3,11,0.00
2013-9-29,68.6,63.1,57.7,63.2,60.1,56.6,97,90,81,30.14,30.07,12,6,13,0.00
2013-9-30,67.2,63.6,60.4,64.5,60.1,45.0,98,89,52,30.11,30.00,11,5,14,0.00
2013-10-1,67.2,61.8,57.0,58.6,54.0,46.8,88,76,60,30.04,29.93,10,4,11,0.00
2013-10-2,72.0,61.6,55.5,58.7,53.4,46.6,91,76,45,30.04,29.96,14,4,16,0.00
2013-10-3,77.2,66.2,56.2,52.8,40.4,30.2,60,42,19,30.11,29.97,16,8,22,0.00
2013-10-4,83.2,71.5,60.8,54.4,35.9,26.4,74,30,13,30.11,29.99,18,8,23,0.00
2013-10-5,84.9,71.0,57.5,52.8,36.1,27.4,73,31,14,30.21,30.11,13,4,17,0.00
2013-10-6,86.8,67.5,54.8,53.4,45.5,36.2,73,48,17,30.15,30.01,10,4,11,0.00
2013-10-7,74.6,62.1,54.7,56.6,48.7,39.4,87,63,36,30.02,29.90,10,3,10,0.00
2013-10-8,62.8,57.9,52.2,56.5,52.9,49.4,91,84,73,29.94,29.75,15,5,16,0.00
2013-10-9,63.8,58.2,54.5,55.1,51.9,48.1,89,80,63,29.79,29.67,12,6,13,0.00
2013-10-10,59.4,56.2,53.9,53.6,52.0,50.7,90,86,78,30.05,29.79,16,7,21,0.00
2013-10-11,59.3,54.5,51.5,52.7,51.0,49.4,95,88,78,30.13,30.00,12,6,15,0.00
2013-10-12,59.5,54.6,52.0,53.7,51.5,50.3,95,90,77,30.05,29.92,14,7,16,0.00
2013-10-13,66.9,58.5,53.1,56.7,52.5,48.0,91,81,53,30.09,29.95,11,4,15,0.00
2013-10-14,83.6,62.8,48.7,56.7,49.1,38.3,91,66,21,30.16,30.01,6,2,9,0.00
2013-10-15,85.0,64.7,50.7,54.6,44.0,32.7,73,51,16,30.08,29.95,10,3,12,0.00
2013-10-16,83.9,64.8,52.3,54.0,44.3,36.6,77,51,20,30.12,30.01,8,3,10,0.00
2013-10-17,78.1,62.3,52.6,55.5,47.0,39.6,92,60,27,30.12,29.98,9,4,11,0.00
2013-10-18,61.1,56.6,52.3,55.7,53.1,50.3,95,88,79,30.09,30.00,9,4,10,0.00
2013-10-19,77.9,59.1,48.2,56.5,52.6,46.0,95,81,43,30.11,30.00,10,3,11,0.00
2013-10-20,58.7,53.8,50.9,55.0,51.9,49.8,97,93,85,30.06,29.93,14,6,16,0.01
2013-10-21,58.3,53.1,50.6,53.8,51.2,49.4,97,94,84,30.06,29.94,12,7,14,0.00
2013-10-22,57.9,52.9,49.8,55.6,51.7,49.3,98,96,89,30.07,29.94,9,1,10,0.00
2013-10-23,57.2,52.0,49.0,54.5,50.9,48.5,99,96,90,30.02,29.93,0,0,0,0.00
2013-10-24,58.1,53.4,49.7,53.0,50.3,47.8,95,90,82,30.15,30.01,0,0,0,0.01
2013-10-25,62.4,56.3,51.4,56.8,52.6,48.4,93,87,75,30.21,30.09,0,0,0,0.00
2013-10-26,75.1,59.0,51.0,57.6,53.8,49.2,95,84,47,30.19,30.03,0,0,0,0.00
2013-10-27,58.1,53.9,50.3,53.3,50.5,47.4,97,89,74,30.07,29.70,0,0,0,0.00
2013-10-28,59.1,55.3,52.0,52.6,49.9,46.6,87,82,69,29.88,29.70,0,0,0,0.00
2013-10-29,59.6,56.2,52.8,52.9,50.3,47.6,88,81,69,30.08,29.88,0,0,0,0.00
2013-10-30,64.2,56.2,49.6,54.6,49.6,45.1,89,79,61,30.19,30.08,0,0,0,0.00
2013-10-31,67.7,56.2,47.1,55.5,49.1,41.1,89,77,55,30.23,30.08,0,0,0,0.00
2013-11-1,79.8,63.5,50.2,54.1,49.1,45.8,89,64,34,30.19,30.02,7,1,10,0.00
2013-11-2,60.5,55.8,51.7,56.4,51.9,45.4,95,87,71,30.06,29.92,14,4,14,0.00
2013-11-3,65.1,56.1,49.7,51.3,43.3,33.3,89,64,31,30.09,29.95,9,4,13,0.00
2013-11-4,73.8,57.9,46.5,49.5,40.2,27.4,78,56,18,30.11,29.96,13,5,17,0.00
2013-11-5,73.6,58.6,51.0,53.0,45.4,36.7,87,64,31,30.25,30.09,8,2,11,0.00
2013-11-6,77.2,63.1,51.4,48.6,43.2,38.2,83,52,27,30.29,30.17,9,4,12,0.00
2013-11-7,73.5,59.6,53.0,55.3,50.6,43.9,92,74,42,30.20,30.08,12,3,12,0.00
2013-11-8,62.5,55.5,51.5,56.8,52.3,47.7,98,89,73,30.12,29.97,7,2,10,0.00
2013-11-9,65.1,55.8,47.7,55.0,50.8,45.2,93,84,62,30.08,29.99,8,3,11,0.00
2013-11-10,65.2,55.3,51.3,56.4,51.4,48.8,94,87,70,30.16,30.07,9,2,11,0.00
2013-11-11,64.5,56.7,50.8,56.2,52.3,48.7,93,86,70,30.21,30.10,5,2,7,0.00
2013-11-12,75.1,60.8,56.6,55.8,53.1,49.9,92,77,43,30.31,30.18,8,1,9,0.00
2013-11-13,68.6,56.2,49.7,57.7,53.4,47.8,97,91,67,30.29,30.13,12,4,14,0.00
2013-11-14,58.0,54.9,52.6,55.3,52.1,44.7,98,91,66,30.16,29.90,15,6,21,0.01
2013-11-15,66.8,56.2,51.4,52.2,48.4,44.3,89,76,47,29.91,29.75,12,4,13,0.00
2013-11-16,62.6,54.7,49.7,54.4,49.7,45.0,92,84,67,29.96,29.81,12,6,13,0.00
2013-11-17,58.5,53.5,50.6,51.3,49.8,47.5,94,87,77,30.13,29.96,12,5,13,0.00
2013-11-18,56.7,53.7,49.9,51.2,49.7,47.1,92,86,78,30.20,30.11,8,4,10,0.00
2013-11-19,57.4,55.9,53.9,56.4,53.1,49.5,97,90,83,30.15,29.96,15,1,17,0.40
2013-11-20,58.5,56.0,53.0,57.7,55.1,51.1,98,97,93,29.97,29.86,13,4,13,0.46
2013-11-21,66.1,57.8,52.8,54.8,39.2,26.7,94,57,24,30.02,29.93,0,0,0,0.01
2013-11-22,75.7,63.3,53.5,30.1,21.7,11.7,37,21,10,30.06,29.91,11,3,22,0.00
2013-11-23,67.8,57.8,49.6,48.3,34.5,21.2,89,46,18,30.14,29.99,21,6,24,0.00
2013-11-24,65.3,52.7,45.1,49.0,45.5,41.3,93,78,48,30.29,30.14,8,2,9,0.00
2013-11-25,69.8,54.4,42.8,50.2,44.9,39.5,92,72,46,30.36,30.26,7,4,10,0.00
2013-11-26,65.8,54.7,47.4,46.1,43.8,40.5,90,69,43,30.30,30.07,9,5,10,0.00
2013-11-27,70.3,58.0,49.7,51.1,46.5,44.3,85,67,44,30.07,29.86,7,2,8,0.00
2013-11-28,71.4,57.3,49.8,51.4,47.6,43.9,88,72,40,30.11,29.90,8,4,10,0.00
2013-11-29,69.1,55.4,45.2,51.9,48.4,41.6,93,79,49,30.25,30.11,8,2,12,0.00
2013-11-30,69.4,53.9,48.1,55.9,49.9,45.9,97,88,49,30.31,30.21,7,2,8,0.01
2013-12-1,75.9,55.7,44.7,54.5,48.8,43.4,96,81,37,30.37,30.23,8,2,10,0.01
2013-12-2,60.3,54.0,49.6,54.7,51.5,48.8,97,91,76,30.26,30.00,14,5,14,0.01
2013-12-3,59.8,51.8,44.5,54.8,39.5,32.9,92,64,43,29.99,29.87,18,6,22,0.00
2013-12-4,57.8,44.7,35.3,34.7,26.5,15.4,80,53,22,30.13,29.99,9,3,12,0.00
2013-12-5,55.4,42.0,33.2,36.7,26.0,19.8,79,55,30,30.20,30.13,10,2,11,0.00
2013-12-6,52.0,45.8,35.5,49.2,38.3,30.2,91,75,56,30.24,29.94,22,9,26,0.29
2013-12-7,53.4,45.1,37.1,46.7,32.9,27.8,90,64,41,30.30,29.97,16,7,21,0.01
2013-12-8,46.9,39.3,32.8,30.8,25.9,20.1,85,61,38,30.36,30.26,12,5,16,0.00
2013-12-9,52.6,41.6,32.0,29.9,21.8,15.4,72,48,23,30.46,30.36,17,5,21,0.00
2013-12-10,57.4,44.5,35.6,35.4,29.3,25.9,76,58,30,30.45,30.23,12,6,17,0.00
2013-12-11,59.5,47.4,37.1,37.9,31.8,26.4,80,58,30,30.28,30.19,12,7,16,0.00
2013-12-12,61.2,48.7,39.0,43.6,38.0,32.8,82,68,43,30.30,30.18,6,2,8,0.00
2013-12-13,62.9,46.6,37.5,49.0,41.8,33.7,94,84,39,30.37,30.26,5,2,7,0.00
2013-12-14,63.3,50.3,39.7,47.2,40.3,34.9,95,73,36,30.42,30.33,13,6,17,0.01
2013-12-15,67.9,52.7,41.4,45.2,39.8,36.0,87,65,34,30.40,30.25,10,5,11,0.00
2013-12-16,72.5,56.9,46.1,46.4,39.3,33.5,86,55,26,30.28,30.13,13,5,14,0.00
2013-12-17,63.5,52.3,47.7,47.7,42.9,38.1,80,70,52,30.21,30.06,9,3,11,0.00
2013-12-18,56.1,48.8,44.0,49.3,44.9,40.1,92,87,69,30.07,29.83,15,7,18,0.00
2013-12-19,65.5,58.0,49.7,41.6,30.6,19.3,63,36,27,29.97,29.82,13,7,18,0.00
2013-12-20,55.2,49.1,40.4,46.0,34.6,22.3,81,59,35,30.05,29.97,7,2,8,0.00
2013-12-21,64.3,52.6,46.4,51.1,45.8,36.7,94,78,57,30.13,30.00,9,2,11,0.00
2013-12-22,67.3,52.9,41.5,49.9,42.5,38.1,96,71,35,30.32,30.12,10,3,12,0.00
2013-12-23,69.8,53.8,43.9,47.9,42.3,39.4,91,68,38,30.43,30.32,9,4,11,0.00
2013-12-24,65.8,52.1,43.7,48.8,44.3,40.1,89,76,52,30.38,30.23,8,3,10,0.00
2013-12-25,68.8,54.8,44.7,46.7,42.6,38.3,92,67,37,30.34,30.22,12,6,15,0.00
2013-12-26,69.5,52.4,41.8,49.4,42.5,36.3,91,72,32,30.30,30.18,8,3,10,0.00
2013-12-27,61.5,50.0,42.1,46.5,42.1,37.9,87,75,51,30.28,30.16,6,3,10,0.00
2013-12-28,67.5,49.6,41.1,48.3,42.5,36.6,92,78,35,30.20,30.05,9,4,13,0.00
2013-12-29,68.5,54.4,43.2,45.4,33.5,22.7,90,53,19,30.22,30.11,19,5,21,0.00
2013-12-30,66.3,50.5,41.5,48.0,42.3,34.7,93,75,46,30.30,30.21,7,2,8,0.00
2013-12-31,61.4,49.0,41.3,48.1,41.4,37.5,93,77,46,30.33,30.18,9,3,11,0.00
2014-1-1,63.1,49.1,39.3,46.7,40.7,34.9,89,74,49,30.26,30.15,6,2,7,0.00
2014-1-2,71.5,54.8,44.9,45.5,40.6,35.5,87,63,27,30.21,30.07,10,5,14,0.00